Time;durP1;ratioP1;P1;durP2;ratioP2;P2;SDS_P1;SDS_P2;PMS_P1;PMS_P2;Temp;Humidity;BMP_temperature;BMP_pressure;BME280_temperature;BME280_humidity;BME280_pressure;Samples;Min_cycle;Max_cycle;Signal;HPM_P1;HPM_P2
2022/11/28 00:01:30;;;;;;;14.40;9.13;;;2.80;99.90;;;;;;5086480;28;20031;-86
2022/11/28 00:03:56;;;;;;;18.38;10.27;;;2.70;99.90;;;;;;5097387;28;20797;-86
2022/11/28 00:06:22;;;;;;;18.38;10.50;;;2.70;99.90;;;;;;5081576;28;20399;-86
2022/11/28 00:08:48;;;;;;;16.55;9.98;;;2.60;99.90;;;;;;5085064;28;20042;-86
2022/11/28 00:11:15;;;;;;;17.85;10.60;;;2.70;99.90;;;;;;5097016;28;20027;-86
2022/11/28 00:13:41;;;;;;;28.05;11.45;;;2.60;99.90;;;;;;5096672;28;20055;-86
2022/11/28 00:16:11;;;;;;;18.58;11.02;;;2.50;99.90;;;;;;5095913;28;20023;-86
2022/11/28 00:18:37;;;;;;;18.98;11.52;;;2.50;99.90;;;;;;5094973;28;20029;-85
2022/11/28 00:21:05;;;;;;;19.70;11.45;;;2.50;99.90;;;;;;5086611;28;20778;-86
2022/11/28 00:23:32;;;;;;;19.67;11.40;;;2.40;99.90;;;;;;5084059;28;20553;-86
2022/11/28 00:26:04;;;;;;;19.23;11.23;;;2.40;99.90;;;;;;5072434;28;20032;-86
2022/11/28 00:28:30;;;;;;;20.33;10.70;;;2.40;99.90;;;;;;5084617;28;20087;-86
2022/11/28 00:30:56;;;;;;;19.10;11.27;;;2.40;99.90;;;;;;5099034;28;20127;-86
2022/11/28 00:33:21;;;;;;;18.75;11.60;;;2.40;99.90;;;;;;5087049;28;20372;-86
2022/11/28 00:35:47;;;;;;;17.80;10.98;;;2.40;99.90;;;;;;5080674;28;20373;-86
2022/11/28 00:38:13;;;;;;;18.88;11.45;;;2.40;99.90;;;;;;5089082;28;20110;-86
2022/11/28 00:40:38;;;;;;;18.55;10.38;;;2.50;99.90;;;;;;5087734;28;20025;-86
2022/11/28 00:43:04;;;;;;;23.20;11.93;;;2.50;99.90;;;;;;5088942;28;20038;-86
2022/11/28 00:45:30;;;;;;;18.42;11.10;;;2.50;99.90;;;;;;5092252;28;20027;-85
2022/11/28 00:47:55;;;;;;;20.30;11.05;;;2.50;99.90;;;;;;5104177;28;20137;-85
2022/11/28 00:50:21;;;;;;;17.50;10.50;;;2.50;99.90;;;;;;5097836;28;20706;-86
2022/11/28 00:52:47;;;;;;;19.50;11.73;;;2.60;99.90;;;;;;5092573;28;20482;-86
2022/11/28 00:55:12;;;;;;;19.58;11.57;;;2.50;99.90;;;;;;5097566;28;20031;-86
2022/11/28 00:57:38;;;;;;;21.92;11.80;;;2.50;99.90;;;;;;5103483;28;20035;-85
2022/11/28 01:00:05;;;;;;;20.05;11.38;;;2.50;99.90;;;;;;5102089;28;20061;-86
2022/11/28 01:02:31;;;;;;;16.73;10.77;;;2.50;99.90;;;;;;5086264;28;20027;-85
2022/11/28 01:04:58;;;;;;;19.75;12.00;;;2.60;99.90;;;;;;5104281;28;20485;-86
2022/11/28 01:07:27;;;;;;;19.20;11.93;;;2.60;99.90;;;;;;5099947;28;20027;-85
2022/11/28 01:09:56;;;;;;;22.52;12.35;;;2.60;99.90;;;;;;5102593;28;20119;-86
2022/11/28 01:12:21;;;;;;;18.80;11.77;;;2.60;99.90;;;;;;5091736;28;20032;-86
2022/11/28 01:14:47;;;;;;;21.40;12.43;;;2.50;99.90;;;;;;5095802;28;20075;-86
2022/11/28 01:17:13;;;;;;;22.27;12.48;;;2.50;99.90;;;;;;5094234;28;20034;-86
2022/11/28 01:19:38;;;;;;;20.45;11.98;;;2.50;99.90;;;;;;5098162;28;20040;-85
2022/11/28 01:22:05;;;;;;;22.52;13.32;;;2.50;99.90;;;;;;5103903;28;20020;-85
2022/11/28 01:24:32;;;;;;;21.38;11.90;;;2.50;99.90;;;;;;5090075;28;20489;-86
2022/11/28 01:26:58;;;;;;;20.67;12.63;;;2.40;99.90;;;;;;5101660;28;20102;-86
2022/11/28 01:29:23;;;;;;;22.50;11.98;;;2.40;99.90;;;;;;5089549;28;20087;-86
2022/11/28 01:31:49;;;;;;;21.08;12.52;;;2.50;99.90;;;;;;5095882;28;20032;-86
2022/11/28 01:34:15;;;;;;;19.98;12.23;;;2.40;99.90;;;;;;5102652;28;20016;-86
2022/11/28 01:36:41;;;;;;;24.25;12.23;;;2.40;99.90;;;;;;5099203;28;20098;-86
2022/11/28 01:39:07;;;;;;;22.67;12.10;;;2.30;99.90;;;;;;5090050;28;20031;-86
2022/11/28 01:41:32;;;;;;;21.52;12.98;;;2.30;99.90;;;;;;5095459;28;20035;-85
2022/11/28 01:44:13;;;;;;;25.17;12.73;;;2.30;99.90;;;;;;5092819;28;20059;-86
2022/11/28 01:46:39;;;;;;;23.13;14.48;;;2.20;99.90;;;;;;5105734;28;20027;-86
2022/11/28 01:52:55;;;;;;;22.88;13.32;;;2.00;99.90;;;;;;5091942;28;20047;-86
2022/11/28 01:55:25;;;;;;;25.17;13.25;;;2.00;99.90;;;;;;5076322;28;20513;-85
2022/11/28 01:57:52;;;;;;;26.90;13.90;;;1.90;99.90;;;;;;5097897;28;20037;-86
2022/11/28 02:00:20;;;;;;;28.20;14.55;;;2.00;99.90;;;;;;5090233;28;20020;-85
2022/11/28 02:06:41;;;;;;;29.98;15.38;;;1.90;99.90;;;;;;5088113;28;20142;-86
2022/11/28 02:09:14;;;;;;;26.27;14.57;;;1.90;99.90;;;;;;5088973;28;20058;-86
2022/11/28 02:12:08;;;;;;;26.80;15.05;;;1.80;99.90;;;;;;5087716;28;20028;-85
2022/11/28 02:15:02;;;;;;;28.50;15.90;;;1.90;99.90;;;;;;5098357;28;20039;-85
2022/11/28 02:17:36;;;;;;;28.92;15.52;;;1.80;99.90;;;;;;5102771;28;20043;-85
2022/11/28 02:20:28;;;;;;;30.25;15.55;;;1.80;99.90;;;;;;5096472;28;20418;-86
2022/11/28 02:23:05;;;;;;;27.73;15.05;;;1.90;99.90;;;;;;5106518;28;20375;-85
2022/11/28 02:25:56;;;;;;;30.13;16.30;;;1.90;99.90;;;;;;5092411;28;20027;-85
2022/11/28 02:28:47;;;;;;;29.43;15.77;;;1.90;99.90;;;;;;5111813;27;20055;-85
2022/11/28 02:31:36;;;;;;;27.58;14.77;;;1.90;99.90;;;;;;5095363;28;20100;-85
2022/11/28 02:34:43;;;;;;;27.85;15.23;;;2.00;99.90;;;;;;5088378;28;20036;-84
2022/11/28 02:37:21;;;;;;;28.15;14.82;;;2.10;99.90;;;;;;5096046;28;20392;-85
2022/11/28 02:40:13;;;;;;;29.73;15.55;;;2.10;99.90;;;;;;5105683;28;20028;-85
2022/11/28 02:42:50;;;;;;;;;;;2.20;99.90;;;;;;5094261;28;20031;-86
2022/11/28 02:45:28;;;;;;;33.13;16.40;;;2.20;99.90;;;;;;5088296;28;19915;-85
2022/11/28 02:48:02;;;;;;;32.38;15.88;;;2.20;99.90;;;;;;5116530;27;20024;-85
2022/11/28 02:50:34;;;;;;;29.40;15.38;;;2.20;99.90;;;;;;5084868;28;20035;-86
2022/11/28 02:53:07;;;;;;;29.48;15.32;;;2.20;99.90;;;;;;5079198;28;20047;-86
2022/11/28 02:55:38;;;;;;;28.30;15.77;;;2.20;99.90;;;;;;5076441;28;20032;-86
2022/11/28 02:58:04;;;;;;;35.15;16.70;;;2.30;99.90;;;;;;5088355;28;20023;-85
2022/11/28 03:00:33;;;;;;;31.98;17.25;;;2.30;99.90;;;;;;5096303;28;20038;-85
2022/11/28 03:03:26;;;;;;;31.92;17.45;;;2.30;99.90;;;;;;5089768;28;20023;-85
2022/11/28 03:06:12;;;;;;;26.88;15.52;;;2.20;99.90;;;;;;5104185;28;20494;-84
2022/11/28 03:08:51;;;;;;;33.17;16.73;;;2.20;99.90;;;;;;5101249;28;20031;-85
2022/11/28 03:11:50;;;;;;;27.98;16.35;;;2.20;99.90;;;;;;5095665;28;20123;-85
2022/11/28 03:18:28;;;;;;;34.58;17.63;;;2.20;99.90;;;;;;5087918;28;20062;-84
2022/11/28 03:21:22;;;;;;;40.95;18.98;;;2.10;99.90;;;;;;5098685;28;20058;-85
2022/11/28 03:23:53;;;;;;;31.17;16.70;;;2.10;99.90;;;;;;5078180;28;20032;-85
2022/11/28 03:26:29;;;;;;;37.20;17.70;;;2.10;99.90;;;;;;5087183;28;20023;-85
2022/11/28 03:29:02;;;;;;;45.75;21.40;;;2.20;99.90;;;;;;5080749;28;20030;-85
2022/11/28 03:31:45;;;;;;;31.55;17.77;;;2.10;99.90;;;;;;5085403;28;20126;-85
2022/11/28 03:34:14;;;;;;;30.73;17.38;;;2.10;99.90;;;;;;5072932;28;20038;-85
2022/11/28 03:36:46;;;;;;;31.00;17.05;;;2.10;99.90;;;;;;5092718;28;20029;-85
2022/11/28 03:39:15;;;;;;;32.80;17.63;;;2.10;99.90;;;;;;5092300;28;20501;-85
2022/11/28 03:41:53;;;;;;;28.60;15.80;;;2.10;99.90;;;;;;5093545;28;20032;-85
2022/11/28 03:44:26;;;;;;;33.60;18.10;;;2.10;99.90;;;;;;5091409;28;20028;-85
2022/11/28 03:46:55;;;;;;;28.77;16.73;;;2.00;99.90;;;;;;5093130;28;20040;-85
2022/11/28 03:49:29;;;;;;;28.08;15.77;;;2.00;99.90;;;;;;5089802;28;20414;-85
2022/11/28 03:52:04;;;;;;;34.83;17.15;;;2.00;99.90;;;;;;5086661;28;20490;-86
2022/11/28 03:54:48;;;;;;;31.05;16.45;;;1.90;99.90;;;;;;5102200;28;20428;-85
2022/11/28 03:57:42;;;;;;;31.42;16.40;;;1.90;99.90;;;;;;5094979;28;20036;-85
2022/11/28 04:00:46;;;;;;;35.08;17.75;;;1.90;99.90;;;;;;5093826;28;20024;-85
2022/11/28 04:03:22;;;;;;;33.97;17.75;;;1.90;99.90;;;;;;5081192;28;20036;-85
2022/11/28 04:06:03;;;;;;;35.47;17.95;;;1.90;99.90;;;;;;5083833;28;20046;-85
2022/11/28 04:08:42;;;;;;;32.50;16.80;;;1.90;99.90;;;;;;5104837;28;20031;-85
2022/11/28 04:11:13;;;;;;;36.50;17.55;;;1.90;99.90;;;;;;5094916;28;20275;-86
2022/11/28 04:13:57;;;;;;;31.30;17.48;;;1.90;99.90;;;;;;5106095;28;20055;-85
2022/11/28 04:17:02;;;;;;;33.45;17.25;;;1.80;99.90;;;;;;5094688;28;20104;-85
2022/11/28 04:19:47;;;;;;;36.28;18.42;;;1.90;99.90;;;;;;5076130;28;20073;-85
2022/11/28 04:22:31;;;;;;;35.40;18.08;;;1.90;99.90;;;;;;5097015;28;20019;-86
2022/11/28 04:25:03;;;;;;;39.38;18.52;;;1.90;99.90;;;;;;5094115;28;20031;-85
2022/11/28 04:27:39;;;;;;;36.67;18.40;;;1.80;99.90;;;;;;5091142;28;20118;-85
2022/11/28 04:30:06;;;;;;;35.42;17.60;;;1.90;99.90;;;;;;5080706;28;20115;-85
2022/11/28 04:32:36;;;;;;;35.38;17.98;;;1.90;99.90;;;;;;5090017;28;20367;-84
2022/11/28 04:35:08;;;;;;;34.80;17.70;;;1.80;99.90;;;;;;5095004;28;20028;-86
2022/11/28 04:37:37;;;;;;;35.20;18.00;;;1.80;99.90;;;;;;5105272;28;20036;-85
2022/11/28 04:40:06;;;;;;;33.38;17.83;;;1.80;99.90;;;;;;5076310;28;20059;-85
2022/11/28 04:42:40;;;;;;;36.53;18.63;;;1.80;99.90;;;;;;5103657;28;20391;-85
2022/11/28 04:45:18;;;;;;;41.03;19.88;;;1.90;99.90;;;;;;5077471;28;20020;-86
2022/11/28 04:47:44;;;;;;;40.47;19.15;;;1.90;99.90;;;;;;5106917;28;20769;-85
2022/11/28 04:50:12;;;;;;;32.78;17.27;;;1.90;99.90;;;;;;5095445;28;20025;-85
2022/11/28 04:52:56;;;;;;;35.80;17.30;;;1.80;99.90;;;;;;5091126;28;20037;-85
2022/11/28 04:55:31;;;;;;;35.38;17.85;;;1.90;99.90;;;;;;5085062;28;20032;-85
2022/11/28 04:58:12;;;;;;;33.00;17.13;;;1.90;99.90;;;;;;5072045;28;20039;-85
2022/11/28 05:00:38;;;;;;;36.40;18.70;;;1.80;99.90;;;;;;5082985;28;20028;-85
2022/11/28 05:03:05;;;;;;;40.47;19.70;;;1.80;99.90;;;;;;5093054;28;20027;-85
2022/11/28 05:05:39;;;;;;;37.03;18.10;;;1.70;99.90;;;;;;5086119;28;20137;-85
2022/11/28 05:08:05;;;;;;;36.40;18.10;;;1.80;99.90;;;;;;5087505;28;20042;-85
2022/11/28 05:10:31;;;;;;;37.95;19.58;;;1.70;99.90;;;;;;5090386;28;20122;-85
2022/11/28 05:12:56;;;;;;;36.45;19.42;;;1.60;99.90;;;;;;5083846;28;20067;-85
2022/11/28 05:15:22;;;;;;;39.08;19.65;;;1.60;99.90;;;;;;5100715;28;20884;-85
2022/11/28 05:21:35;;;;;;;38.88;18.70;;;1.70;99.90;;;;;;5083358;28;20506;-85
2022/11/28 05:24:00;;;;;;;39.55;18.48;;;1.70;99.90;;;;;;5085170;28;20028;-87
2022/11/28 05:26:26;;;;;;;40.58;19.15;;;1.70;99.90;;;;;;5082687;28;20050;-85
2022/11/28 05:28:52;;;;;;;42.72;20.38;;;1.70;99.90;;;;;;5079677;28;20118;-87
2022/11/28 05:31:19;;;;;;;39.40;19.13;;;1.70;99.90;;;;;;5087692;28;20020;-87
2022/11/28 05:33:45;;;;;;;40.45;19.73;;;1.70;99.90;;;;;;5097691;28;20068;-87
2022/11/28 05:36:12;;;;;;;41.60;20.42;;;1.70;99.90;;;;;;5098523;28;20062;-87
2022/11/28 05:38:38;;;;;;;41.03;20.15;;;1.70;99.90;;;;;;5087518;28;20032;-87
2022/11/28 05:41:04;;;;;;;38.72;19.13;;;1.60;99.90;;;;;;5097505;28;20489;-87
2022/11/28 05:43:30;;;;;;;35.63;19.38;;;1.60;99.90;;;;;;5085958;28;20048;-87
2022/11/28 05:45:57;;;;;;;41.42;20.98;;;1.60;99.90;;;;;;5100919;28;20024;-87
2022/11/28 05:48:23;;;;;;;47.35;23.13;;;1.60;99.90;;;;;;5090069;28;20032;-87
2022/11/28 05:50:49;;;;;;;49.00;23.17;;;1.50;99.90;;;;;;5092874;28;20032;-87
2022/11/28 05:53:17;;;;;;;61.53;29.10;;;1.50;99.90;;;;;;5090396;28;20031;-87
2022/11/28 05:55:42;;;;;;;76.25;33.45;;;1.50;99.90;;;;;;5091377;28;20032;-87
2022/11/28 05:58:08;;;;;;;72.97;35.63;;;1.50;99.90;;;;;;5090057;28;20058;-87
2022/11/28 06:00:34;;;;;;;59.08;28.42;;;1.50;99.90;;;;;;5101600;28;20118;-87
2022/11/28 06:03:00;;;;;;;46.47;21.48;;;1.50;99.90;;;;;;5095769;28;20023;-87
2022/11/28 06:05:25;;;;;;;46.70;22.77;;;1.50;99.90;;;;;;5088714;28;20016;-87
2022/11/28 06:07:51;;;;;;;47.67;23.30;;;1.60;99.90;;;;;;5099705;28;20099;-87
2022/11/28 06:10:18;;;;;;;47.78;23.45;;;1.50;99.90;;;;;;5089302;28;20028;-87
2022/11/28 06:12:43;;;;;;;57.38;27.10;;;1.50;99.90;;;;;;5095291;28;20532;-87
2022/11/28 06:15:18;;;;;;;51.40;25.08;;;1.40;99.90;;;;;;5092592;28;20023;-87
2022/11/28 06:17:44;;;;;;;55.70;26.52;;;1.50;99.90;;;;;;5091666;28;20035;-86
2022/11/28 06:20:10;;;;;;;70.78;33.65;;;1.50;99.90;;;;;;5077599;28;20024;-88
2022/11/28 06:22:36;;;;;;;57.47;28.83;;;1.50;99.90;;;;;;5075345;28;20055;-87
2022/11/28 06:25:01;;;;;;;44.28;20.85;;;1.50;99.90;;;;;;5077461;28;20024;-86
2022/11/28 06:27:27;;;;;;;41.25;20.20;;;1.50;99.90;;;;;;5086601;28;20073;-86
2022/11/28 06:29:53;;;;;;;42.10;20.40;;;1.60;99.90;;;;;;5093216;28;20035;-86
2022/11/28 06:32:19;;;;;;;38.13;18.52;;;1.60;99.90;;;;;;5069838;28;20028;-87
2022/11/28 06:34:44;;;;;;;42.95;18.25;;;1.70;99.90;;;;;;5093422;28;20028;-87
2022/11/28 06:37:10;;;;;;;40.97;19.38;;;1.80;99.90;;;;;;5097703;28;20110;-86
2022/11/28 06:39:36;;;;;;;32.65;16.85;;;1.80;99.90;;;;;;5092528;28;20034;-87
2022/11/28 06:42:02;;;;;;;38.22;16.90;;;1.80;99.90;;;;;;5080199;28;20012;-87
2022/11/28 06:44:29;;;;;;;38.33;17.67;;;1.90;99.90;;;;;;5091463;28;20047;-86
2022/11/28 06:46:55;;;;;;;34.30;17.15;;;1.90;99.90;;;;;;5100824;28;20106;-86
2022/11/28 06:49:21;;;;;;;39.22;16.95;;;2.00;99.90;;;;;;5097296;28;20103;-86
2022/11/28 06:51:46;;;;;;;32.33;17.02;;;2.00;99.90;;;;;;5080314;28;20504;-86
2022/11/28 06:54:12;;;;;;;36.00;18.25;;;2.00;99.90;;;;;;5099900;28;20024;-87
2022/11/28 06:56:41;;;;;;;34.20;18.23;;;1.90;99.90;;;;;;5095165;28;20417;-87
2022/11/28 07:02:57;;;;;;;33.28;16.98;;;2.00;99.90;;;;;;5100269;28;20057;-86
2022/11/28 07:05:26;;;;;;;38.17;17.20;;;2.10;99.90;;;;;;5104093;28;20024;-87
2022/11/28 07:07:56;;;;;;;44.20;21.70;;;2.10;99.90;;;;;;5099058;28;20483;-87
2022/11/28 07:10:23;;;;;;;39.85;20.38;;;2.10;99.90;;;;;;5092768;28;20382;-86
2022/11/28 07:12:56;;;;;;;38.05;18.67;;;2.10;99.90;;;;;;5093577;28;20032;-87
2022/11/28 07:15:23;;;;;;;36.40;18.05;;;2.10;99.90;;;;;;5088858;28;20032;-88
2022/11/28 07:17:49;;;;;;;34.20;17.35;;;2.00;99.90;;;;;;5089538;28;20031;-87
2022/11/28 07:20:15;;;;;;;38.10;18.38;;;2.10;99.90;;;;;;5098733;28;20019;-86
2022/11/28 07:22:42;;;;;;;33.10;17.58;;;2.00;99.90;;;;;;5091444;28;20673;-86
2022/11/28 07:25:09;;;;;;;33.83;17.58;;;2.10;99.90;;;;;;5097701;28;20394;-87
2022/11/28 07:27:34;;;;;;;34.78;18.08;;;2.00;99.90;;;;;;5091295;28;20035;-88
2022/11/28 07:30:00;;;;;;;37.92;19.55;;;2.10;99.90;;;;;;5082256;28;20023;-88
2022/11/28 07:32:26;;;;;;;36.35;17.48;;;2.10;99.90;;;;;;5102250;28;20038;-88
2022/11/28 07:34:51;;;;;;;32.88;16.73;;;2.10;99.90;;;;;;5088072;28;20547;-88
2022/11/28 07:37:17;;;;;;;36.47;20.48;;;2.20;99.90;;;;;;5098512;28;20028;-88
2022/11/28 07:39:43;;;;;;;40.13;22.52;;;2.30;99.90;;;;;;5090897;28;20066;-88
2022/11/28 07:42:10;;;;;;;34.53;17.70;;;2.30;99.90;;;;;;5103880;28;20027;-87
2022/11/28 07:44:35;;;;;;;33.80;18.40;;;2.30;99.90;;;;;;5100511;28;20034;-86
2022/11/28 07:47:02;;;;;;;34.80;18.58;;;2.40;99.90;;;;;;5079407;28;20374;-86
2022/11/28 07:49:27;;;;;;;52.40;26.13;;;2.40;99.90;;;;;;5093287;28;20168;-88
2022/11/28 07:51:53;;;;;;;49.47;24.55;;;2.40;99.90;;;;;;5083786;28;20055;-88
2022/11/28 07:54:19;;;;;;;126.40;51.95;;;2.40;99.90;;;;;;5076142;28;20035;-88
2022/11/28 07:56:45;;;;;;;70.28;27.55;;;2.40;99.90;;;;;;5073851;28;20075;-90
2022/11/28 07:59:11;;;;;;;45.65;26.08;;;2.50;99.90;;;;;;5080113;28;20031;-88
2022/11/28 08:01:37;;;;;;;36.35;18.35;;;2.50;99.90;;;;;;5076021;28;20129;-87
2022/11/28 08:04:08;;;;;;;34.90;17.95;;;2.60;99.90;;;;;;5093146;28;20026;-89
2022/11/28 08:06:40;;;;;;;37.17;17.75;;;2.70;99.90;;;;;;5075433;28;20047;-87
2022/11/28 08:09:06;;;;;;;31.92;16.88;;;2.80;99.90;;;;;;5075738;28;20028;-88
2022/11/28 08:11:32;;;;;;;32.33;16.45;;;2.90;99.90;;;;;;5086776;28;20032;-88
2022/11/28 08:13:59;;;;;;;29.92;15.70;;;2.90;99.90;;;;;;5069810;28;20031;-88
2022/11/28 08:16:27;;;;;;;27.85;15.27;;;2.90;99.90;;;;;;5068533;28;20028;-88
2022/11/28 08:18:54;;;;;;;30.98;15.73;;;2.90;99.90;;;;;;5069669;28;20829;-89
2022/11/28 08:21:23;;;;;;;34.05;17.30;;;3.00;99.90;;;;;;5084552;28;20039;-88
2022/11/28 08:23:52;;;;;;;32.00;17.08;;;3.00;99.90;;;;;;5074688;28;20039;-88
2022/11/28 08:26:21;;;;;;;40.53;19.27;;;3.00;99.90;;;;;;5086057;28;20058;-88
2022/11/28 08:28:47;;;;;;;40.38;19.45;;;3.10;99.90;;;;;;5092624;28;20048;-87
2022/11/28 08:31:16;;;;;;;36.65;18.35;;;3.00;99.90;;;;;;5090595;28;20028;-88
2022/11/28 08:33:42;;;;;;;39.38;19.77;;;3.00;99.90;;;;;;5082330;28;20036;-87
2022/11/28 08:36:10;;;;;;;35.35;19.20;;;3.00;99.90;;;;;;5086841;28;20031;-87
2022/11/28 08:38:36;;;;;;;36.60;19.25;;;3.00;99.90;;;;;;5092634;28;20034;-88
2022/11/28 08:41:07;;;;;;;38.85;19.15;;;3.10;99.90;;;;;;5086753;28;20016;-88
2022/11/28 08:43:33;;;;;;;34.22;17.90;;;3.10;99.90;;;;;;5092449;28;20028;-87
2022/11/28 08:45:59;;;;;;;32.85;18.25;;;3.20;99.90;;;;;;5087520;28;20067;-88
2022/11/28 08:48:25;;;;;;;42.80;21.10;;;3.30;99.90;;;;;;5087441;28;20367;-87
2022/11/28 08:50:51;;;;;;;32.65;17.75;;;3.40;99.90;;;;;;5086553;28;20035;-88
2022/11/28 08:53:17;;;;;;;35.38;16.90;;;3.50;99.90;;;;;;5092858;28;20020;-88
2022/11/28 08:55:43;;;;;;;31.38;16.80;;;3.50;99.90;;;;;;5083821;28;20048;-89
2022/11/28 08:58:13;;;;;;;31.27;15.60;;;3.60;99.90;;;;;;5087248;28;20467;-88
2022/11/28 09:00:41;;;;;;;34.08;16.73;;;3.60;99.90;;;;;;5096008;28;20023;-88
2022/11/28 09:03:07;;;;;;;27.40;16.05;;;3.60;99.90;;;;;;5087713;28;20019;-87
2022/11/28 09:05:33;;;;;;;31.65;16.45;;;3.70;99.90;;;;;;5094412;28;20024;-88
2022/11/28 09:07:59;;;;;;;31.90;17.25;;;3.60;99.90;;;;;;5080980;28;20040;-88
2022/11/28 09:10:25;;;;;;;32.63;16.92;;;3.70;99.90;;;;;;5092754;28;20382;-87
2022/11/28 09:12:51;;;;;;;32.63;17.70;;;3.80;99.90;;;;;;5096838;28;20024;-89
2022/11/28 09:15:18;;;;;;;41.92;21.80;;;3.90;99.90;;;;;;5094413;28;20164;-87
2022/11/28 09:17:44;;;;;;;46.70;21.27;;;4.00;99.90;;;;;;5088122;28;20028;-88
2022/11/28 09:20:10;;;;;;;40.15;20.23;;;4.00;99.90;;;;;;5099576;28;20024;-87
2022/11/28 09:22:36;;;;;;;39.53;20.10;;;4.10;99.90;;;;;;5102909;28;20484;-89
2022/11/28 09:25:02;;;;;;;38.90;20.23;;;4.00;99.90;;;;;;5082405;28;20019;-87
2022/11/28 09:27:28;;;;;;;43.85;22.73;;;3.90;99.90;;;;;;5094495;28;20042;-87
2022/11/28 09:29:53;;;;;;;43.92;22.23;;;4.00;99.90;;;;;;5100769;28;20029;-87
2022/11/28 09:32:20;;;;;;;40.35;19.85;;;4.00;99.90;;;;;;5094032;28;20122;-88
2022/11/28 09:34:45;;;;;;;56.03;27.08;;;4.00;99.90;;;;;;5087322;28;20023;-89
2022/11/28 09:37:33;;;;;;;31.88;17.73;;;4.00;99.90;;;;;;5099878;28;20054;-88
2022/11/28 09:39:59;;;;;;;33.15;17.65;;;4.00;99.90;;;;;;5080669;28;20020;-88
2022/11/28 09:42:43;;;;;;;33.72;19.05;;;4.10;99.90;;;;;;5105077;28;20073;-88
2022/11/28 09:45:21;;;;;;;30.20;16.60;;;4.20;99.90;;;;;;5077928;28;20017;-88
2022/11/28 09:48:36;;;;;;;32.42;17.23;;;4.30;99.90;;;;;;5111095;28;20577;-89
2022/11/28 09:51:52;;;;;;;29.35;15.65;;;4.20;99.90;;;;;;5065686;28;20032;-88
2022/11/28 09:54:42;;;;;;;26.58;14.93;;;4.30;99.90;;;;;;5101833;28;20027;-88
2022/11/28 09:57:17;;;;;;;21.58;12.65;;;4.30;99.90;;;;;;5092491;28;20483;-88
2022/11/28 09:59:42;;;;;;;25.50;13.65;;;4.30;99.90;;;;;;5108484;28;20104;-88
2022/11/28 10:02:14;;;;;;;23.65;13.82;;;4.30;99.90;;;;;;5080755;28;20476;-88
2022/11/28 10:04:40;;;;;;;;;;;4.40;99.90;;;;;;5109963;28;20059;-87
2022/11/28 10:07:14;;;;;;;124.18;33.95;;;4.50;99.90;;;;;;5081956;28;19908;-88
2022/11/28 10:09:45;;;;;;;109.47;33.65;;;4.60;99.90;;;;;;5115480;27;20082;-88
2022/11/28 10:12:50;;;;;;;37.10;17.13;;;4.60;99.90;;;;;;5101442;28;20031;-89
2022/11/28 10:15:54;;;;;;;27.50;15.70;;;4.70;99.90;;;;;;5099018;28;20038;-89
2022/11/28 10:18:38;;;;;;;22.42;13.52;;;4.70;99.90;;;;;;5046613;28;20048;-88
2022/11/28 10:21:20;;;;;;;24.20;14.40;;;4.70;99.90;;;;;;5095004;28;20475;-87
2022/11/28 10:23:49;;;;;;;48.28;21.55;;;5.00;99.90;;;;;;5113286;27;20051;-85
2022/11/28 10:26:31;;;;;;;28.10;15.50;;;5.00;99.90;;;;;;5090072;28;20023;-87
2022/11/28 10:29:01;;;;;;;39.88;17.63;;;5.00;99.90;;;;;;5076712;28;20028;-87
2022/11/28 10:31:41;;;;;;;51.55;21.33;;;5.00;99.90;;;;;;5104026;28;20726;-87
2022/11/28 10:34:29;;;;;;;34.17;16.63;;;5.10;99.90;;;;;;5078951;28;20031;-87
2022/11/28 10:37:18;;;;;;;40.40;18.05;;;5.10;99.90;;;;;;5094657;28;20028;-87
2022/11/28 10:39:44;;;;;;;40.35;17.38;;;5.20;99.90;;;;;;5069347;28;20040;-86
2022/11/28 10:42:18;;;;;;;29.92;17.23;;;5.20;99.90;;;;;;5086436;28;20077;-87
2022/11/28 10:45:10;;;;;;;37.70;18.33;;;5.20;99.90;;;;;;5076341;28;20081;-87
2022/11/28 10:47:41;;;;;;;;;;;5.30;99.90;;;;;;5068727;28;20036;-87
2022/11/28 10:50:26;;;;;;;21.42;12.45;;;5.40;99.90;;;;;;5090263;28;20010;-87
2022/11/28 10:53:07;;;;;;;20.70;12.23;;;5.50;99.90;;;;;;5092115;28;20106;-87
2022/11/28 10:55:32;;;;;;;18.42;10.55;;;5.60;99.90;;;;;;5083000;28;20041;-87
2022/11/28 10:58:01;;;;;;;15.02;9.55;;;5.70;99.90;;;;;;5075465;28;20038;-87
2022/11/28 11:00:27;;;;;;;21.50;11.13;;;5.80;99.90;;;;;;5075541;28;20463;-87
2022/11/28 11:02:54;;;;;;;19.83;11.10;;;5.90;99.90;;;;;;5073667;28;20039;-88
2022/11/28 11:05:25;;;;;;;16.95;10.55;;;5.70;99.90;;;;;;5071502;28;20031;-87
2022/11/28 11:08:24;;;;;;;19.75;11.32;;;5.70;99.90;;;;;;5074756;28;20065;-87
2022/11/28 11:10:56;;;;;;;19.17;10.00;;;5.70;99.90;;;;;;5074762;28;20122;-86
2022/11/28 11:13:27;;;;;;;18.95;11.02;;;5.90;99.90;;;;;;5088469;28;20375;-87
2022/11/28 11:16:03;;;;;;;18.63;9.95;;;6.00;99.90;;;;;;5061229;28;20070;-87
2022/11/28 11:18:49;;;;;;;17.13;10.23;;;6.30;99.90;;;;;;5069884;28;20487;-87
2022/11/28 11:21:20;;;;;;;14.25;9.07;;;6.40;99.90;;;;;;5057311;28;20039;-87
2022/11/28 11:23:48;;;;;;;14.45;9.27;;;6.40;99.90;;;;;;5075509;28;20029;-87
2022/11/28 11:26:25;;;;;;;16.05;9.18;;;6.50;99.90;;;;;;5060227;28;20036;-87
2022/11/28 11:28:51;;;;;;;12.50;8.40;;;6.50;99.90;;;;;;5089423;28;20535;-87
2022/11/28 11:31:25;;;;;;;16.33;8.07;;;6.50;99.90;;;;;;5100319;28;20067;-87
2022/11/28 11:34:00;;;;;;;17.58;8.50;;;6.60;99.90;;;;;;5059945;28;20074;-87
2022/11/28 11:36:32;;;;;;;13.85;7.97;;;6.70;99.90;;;;;;5083869;28;20028;-87
2022/11/28 11:39:10;;;;;;;14.13;8.25;;;6.80;99.90;;;;;;5089907;28;20028;-87
2022/11/28 11:41:41;;;;;;;13.35;7.88;;;6.80;99.90;;;;;;5062883;28;20025;-88
2022/11/28 11:44:13;;;;;;;18.13;8.23;;;6.90;99.90;;;;;;5058202;28;20028;-87
2022/11/28 11:47:00;;;;;;;21.55;10.23;;;7.00;99.90;;;;;;5088829;28;20111;-87
2022/11/28 11:49:41;;;;;;;17.38;9.70;;;7.10;99.90;;;;;;5083106;28;20032;-87
2022/11/28 11:52:17;;;;;;;17.13;8.70;;;7.30;99.90;;;;;;5058523;28;20410;-87
2022/11/28 11:54:55;;;;;;;22.10;7.95;;;7.20;99.90;;;;;;5063029;28;20039;-88
2022/11/28 11:57:31;;;;;;;11.48;7.15;;;7.20;99.90;;;;;;5085761;28;20043;-87
2022/11/28 12:00:13;;;;;;;13.50;7.88;;;7.20;99.90;;;;;;5081235;28;20060;-87
2022/11/28 12:02:50;;;;;;;13.85;7.75;;;7.10;99.90;;;;;;5086512;28;20016;-87
2022/11/28 12:05:19;;;;;;;16.90;7.25;;;7.10;99.90;;;;;;5067470;28;20493;-87
2022/11/28 12:07:47;;;;;;;16.02;7.82;;;7.10;99.90;;;;;;5086468;28;20035;-87
2022/11/28 12:10:17;;;;;;;26.65;12.90;;;6.90;99.90;;;;;;5078328;28;20035;-88
2022/11/28 12:12:43;;;;;;;16.73;9.05;;;6.80;99.90;;;;;;5081981;28;20100;-87
2022/11/28 12:15:38;;;;;;;16.65;9.45;;;6.70;99.90;;;;;;5073503;28;20028;-87
2022/11/28 12:18:29;;;;;;;28.95;14.60;;;6.70;99.90;;;;;;5074574;28;20036;-87
2022/11/28 12:21:18;;;;;;;22.33;10.45;;;6.60;99.90;;;;;;5076939;28;20101;-87
2022/11/28 12:24:08;;;;;;;17.75;9.60;;;6.70;99.90;;;;;;5072181;28;20032;-88
2022/11/28 12:26:56;;;;;;;16.73;10.00;;;6.80;99.90;;;;;;5086481;28;20384;-87
2022/11/28 12:29:39;;;;;;;21.13;11.35;;;7.00;99.90;;;;;;5082380;28;20028;-88
2022/11/28 12:32:37;;;;;;;17.08;9.52;;;7.20;99.90;;;;;;5063535;28;20558;-88
2022/11/28 12:35:15;;;;;;;17.73;9.25;;;7.30;99.90;;;;;;5069810;28;20024;-87
2022/11/28 12:38:18;;;;;;;15.75;8.77;;;7.30;99.90;;;;;;5081181;28;20028;-88
2022/11/28 12:40:52;;;;;;;17.85;9.25;;;7.40;99.90;;;;;;5096664;28;20029;-87
2022/11/28 12:43:23;;;;;;;24.33;13.65;;;7.50;99.90;;;;;;5072946;28;20737;-87
2022/11/28 12:46:21;;;;;;;17.88;10.02;;;7.40;99.90;;;;;;5070025;28;20119;-88
2022/11/28 12:49:01;;;;;;;16.92;8.82;;;7.50;99.90;;;;;;5077384;28;20071;-88
2022/11/28 12:52:15;;;;;;;16.23;7.28;;;7.60;99.90;;;;;;5092239;28;20458;-88
2022/11/28 12:54:40;;;;;;;13.30;6.95;;;7.80;99.90;;;;;;4982096;28;20473;-87
2022/11/28 12:57:20;;;;;;;11.38;7.00;;;8.00;99.90;;;;;;5083618;28;20131;-87
2022/11/28 13:00:09;;;;;;;11.73;8.07;;;8.20;99.90;;;;;;5075964;28;20086;-88
2022/11/28 13:02:48;;;;;;;21.90;10.73;;;8.10;99.90;;;;;;5075523;28;20115;-88
2022/11/28 13:05:32;;;;;;;9.75;6.60;;;8.10;99.90;;;;;;5063068;28;20728;-88
2022/11/28 13:08:11;;;;;;;19.77;7.65;;;8.00;99.90;;;;;;5079050;28;20041;-87
2022/11/28 13:10:44;;;;;;;17.13;9.05;;;8.10;99.90;;;;;;5078527;28;20033;-87
2022/11/28 13:13:20;;;;;;;14.20;7.03;;;8.10;99.90;;;;;;5087413;28;20039;-88
2022/11/28 13:16:37;;;;;;;15.48;7.22;;;8.20;99.90;;;;;;5060766;28;20064;-87
2022/11/28 13:19:12;;;;;;;15.30;7.47;;;8.30;99.90;;;;;;5043451;28;20047;-88
2022/11/28 13:21:46;;;;;;;14.18;6.90;;;8.20;99.90;;;;;;5069576;28;20541;-88
2022/11/28 13:24:21;;;;;;;11.10;6.40;;;8.20;99.90;;;;;;5078891;28;20103;-88
2022/11/28 13:27:05;;;;;;;16.70;8.93;;;8.20;99.90;;;;;;5087763;28;20033;-89